Time;durP1;ratioP1;P1;durP2;ratioP2;P2;SDS_P1;SDS_P2;PMS_P1;PMS_P2;Temp;Humidity;BMP_temperature;BMP_pressure;BME280_temperature;BME280_humidity;BME280_pressure;Samples;Min_cycle;Max_cycle;Signal;HPM_P1;HPM_P2
2022/02/25 00:00:28;;;;;;;12.43;11.12;;;;;;;13.74;56.44;100270.98;1747529;78;21010;-68
2022/02/25 00:02:54;;;;;;;12.65;11.15;;;;;;;13.74;56.43;100274.47;1747791;80;21265;-67
2022/02/25 00:05:23;;;;;;;12.60;10.82;;;;;;;13.74;56.44;100268.31;1791733;79;21050;-67
2022/02/25 00:07:52;;;;;;;13.68;12.28;;;;;;;13.74;56.43;100269.64;1778338;79;21546;-67
2022/02/25 00:10:20;;;;;;;13.22;11.80;;;;;;;13.73;56.42;100267.97;1758139;79;21006;-68
2022/02/25 00:12:48;;;;;;;13.58;11.70;;;;;;;13.71;56.43;100263.30;1747460;82;21084;-68
2022/02/25 00:15:16;;;;;;;12.60;11.30;;;;;;;13.71;56.43;100253.48;1764225;80;21314;-68
2022/02/25 00:17:45;;;;;;;12.78;11.10;;;;;;;13.71;56.40;100244.61;1778427;80;21033;-66
2022/02/25 00:20:13;;;;;;;12.18;10.95;;;;;;;13.72;56.42;100240.95;1778198;80;21038;-68
2022/02/25 00:22:40;;;;;;;12.25;10.95;;;;;;;13.70;56.43;100241.63;1778476;80;21541;-66
2022/02/25 00:25:10;;;;;;;11.33;10.13;;;;;;;13.70;56.40;100240.30;1778044;80;21006;-67
2022/02/25 00:27:42;;;;;;;13.08;11.53;;;;;;;13.69;56.42;100231.44;1754597;80;21531;-67
2022/02/25 00:30:12;;;;;;;13.10;11.70;;;;;;;13.70;56.40;100236.30;1747511;82;21010;-68
2022/02/25 00:32:40;;;;;;;11.45;10.25;;;;;;;13.69;56.41;100234.10;1747324;82;21044;-68
2022/02/25 00:35:09;;;;;;;11.57;10.38;;;;;;;13.69;56.42;100231.95;1747365;81;21505;-67
2022/02/25 00:37:37;;;;;;;11.80;10.43;;;;;;;13.68;56.41;100229.79;1784824;79;21508;-67
2022/02/25 00:40:09;;;;;;;12.45;11.25;;;;;;;13.68;56.39;100224.96;1778275;80;21066;-68
2022/02/25 00:42:37;;;;;;;12.23;10.85;;;;;;;13.68;56.39;100228.97;1778241;80;21089;-67
2022/02/25 00:45:07;;;;;;;12.47;11.18;;;;;;;13.67;56.39;100221.95;1768106;80;21017;-67
2022/02/25 00:47:35;;;;;;;12.60;11.30;;;;;;;13.66;56.42;100221.64;1771264;80;21041;-67
2022/02/25 00:50:05;;;;;;;12.95;11.68;;;;;;;13.66;56.39;100221.13;1778126;80;21006;-68
2022/02/25 00:52:33;;;;;;;12.33;11.10;;;;;;;13.66;56.39;100221.13;1778248;79;21056;-68
2022/02/25 00:55:01;;;;;;;12.47;10.82;;;;;;;13.66;56.40;100224.31;1778329;80;21920;-67
2022/02/25 00:57:29;;;;;;;11.55;10.30;;;;;;;13.64;56.39;100215.13;1778300;80;21033;-68
2022/02/25 00:59:56;;;;;;;11.83;10.72;;;;;;;13.64;56.40;100215.13;1775787;80;20995;-68
2022/02/25 01:02:22;;;;;;;11.18;9.98;;;;;;;13.65;56.39;100209.28;1747483;82;21046;-68
2022/02/25 01:04:49;;;;;;;11.83;10.63;;;;;;;13.65;56.38;100207.95;1747865;81;21120;-68
2022/02/25 01:07:16;;;;;;;11.00;9.90;;;;;;;13.64;56.39;100199.12;1747316;82;21261;-67
2022/02/25 01:09:43;;;;;;;11.88;10.68;;;;;;;13.64;56.38;100200.45;1760136;79;21081;-68
2022/02/25 01:12:11;;;;;;;11.48;10.28;;;;;;;13.64;56.38;100201.78;1788962;79;21030;-68
2022/02/25 01:14:37;;;;;;;11.33;10.23;;;;;;;13.62;56.38;100198.47;1769990;80;21533;-67
2022/02/25 01:17:04;;;;;;;11.68;10.48;;;;;;;13.63;56.38;100190.77;1751038;80;21053;-69
2022/02/25 01:19:31;;;;;;;12.23;10.63;;;;;;;13.62;56.36;100190.94;1778317;80;21157;-68
2022/02/25 01:21:57;;;;;;;11.25;10.08;;;;;;;13.62;56.36;100193.13;1778201;80;21566;-68
2022/02/25 01:24:23;;;;;;;11.60;10.40;;;;;;;13.63;56.35;100185.42;1778314;80;21112;-66
2022/02/25 01:26:50;;;;;;;11.48;10.00;;;;;;;13.61;56.35;100179.95;1778297;80;21542;-68
2022/02/25 01:29:16;;;;;;;11.63;10.13;;;;;;;13.61;56.35;100182.11;1778428;80;21128;-67
2022/02/25 01:31:44;;;;;;;12.18;10.85;;;;;;;13.61;56.34;100179.95;1778212;80;21143;-68
2022/02/25 01:34:11;;;;;;;12.10;10.78;;;;;;;13.60;56.31;100179.61;1770106;80;21097;-67
2022/02/25 01:36:38;;;;;;;11.03;9.93;;;;;;;13.60;56.35;100174.27;1752837;80;21076;-67
2022/02/25 01:39:04;;;;;;;12.68;11.38;;;;;;;13.61;56.34;100177.28;1778864;80;20978;-68
2022/02/25 01:41:31;;;;;;;11.08;9.98;;;;;;;13.60;56.31;100166.27;1808103;78;21032;-68
2022/02/25 01:44:21;;;;;;;10.32;9.25;;;;;;;13.59;56.33;100168.62;1789176;80;21264;-67
2022/02/25 01:46:59;;;;;;;10.98;9.88;;;;;;;13.59;56.31;100164.62;1786778;80;21028;-67
2022/02/25 01:50:53;;;;;;;12.15;10.98;;;;;;;13.62;56.32;100161.09;1869556;76;28059;-67
2022/02/25 01:53:20;;;;;;;11.30;10.20;;;;;;;13.57;56.33;100161.61;1826333;78;21014;-68
2022/02/25 01:55:51;;;;;;;11.35;10.15;;;;;;;13.58;56.31;100163.80;1826364;78;21078;-67
2022/02/25 01:58:15;;;;;;;10.90;9.80;;;;;;;13.57;56.31;100160.78;1825893;78;20929;-68
2022/02/25 02:00:43;;;;;;;12.30;11.05;;;;;;;13.57;56.33;100166.13;1826519;78;21041;-68
2022/02/25 02:03:09;;;;;;;12.53;11.22;;;;;;;13.56;56.32;100159.14;1826451;78;21053;-67
2022/02/25 02:05:37;;;;;;;12.78;11.45;;;;;;;13.55;56.32;100156.95;1826523;78;21053;-68
2022/02/25 02:08:04;;;;;;;11.60;10.40;;;;;;;13.55;56.33;100160.95;1829833;78;21239;-68
2022/02/25 02:10:31;;;;;;;11.97;10.72;;;;;;;13.55;56.32;100156.95;1793873;80;20969;-66
2022/02/25 02:12:57;;;;;;;12.00;10.80;;;;;;;13.55;56.32;100149.45;1825885;78;21093;-68
2022/02/25 02:15:24;;;;;;;11.28;10.08;;;;;;;13.54;56.31;100153.97;1828140;77;20986;-67
2022/02/25 02:17:53;;;;;;;11.97;10.78;;;;;;;13.53;56.31;100150.95;1840979;77;20998;-67
2022/02/25 02:20:20;;;;;;;12.70;10.95;;;;;;;13.54;56.32;100147.30;1826333;78;21196;-68
2022/02/25 02:22:46;;;;;;;12.00;10.80;;;;;;;13.53;56.32;100142.95;1826415;78;21084;-68
2022/02/25 02:25:13;;;;;;;11.85;10.70;;;;;;;13.53;56.32;100146.95;1821012;78;21034;-67
2022/02/25 02:30:24;;;;;;;12.05;10.80;;;;;;;13.53;56.30;100140.80;1793980;80;21006;-67
2022/02/25 02:32:50;;;;;;;12.33;11.05;;;;;;;13.53;56.29;100148.29;1794211;79;21773;-68
2022/02/25 02:35:17;;;;;;;12.73;11.43;;;;;;;13.52;56.29;100151.12;1794203;80;21096;-67
2022/02/25 02:37:43;;;;;;;13.05;11.28;;;;;;;13.51;56.28;100142.30;1794132;80;21029;-67
2022/02/25 02:40:11;;;;;;;12.33;11.03;;;;;;;13.51;56.29;100143.64;1794312;79;21022;-68
2022/02/25 02:42:37;;;;;;;12.65;10.82;;;;;;;13.51;56.29;100142.30;1804935;78;21072;-68
2022/02/25 02:45:05;;;;;;;11.95;10.85;;;;;;;13.51;56.28;100142.30;1826352;78;21165;-69
2022/02/25 02:47:32;;;;;;;12.35;11.15;;;;;;;13.50;56.28;100135.31;1842893;77;20975;-68
2022/02/25 02:49:59;;;;;;;11.43;10.30;;;;;;;13.50;56.27;100132.65;1820442;78;20990;-68
2022/02/25 02:52:25;;;;;;;11.90;10.80;;;;;;;13.50;56.28;100128.64;1815351;79;21006;-67
2022/02/25 02:54:51;;;;;;;12.88;11.57;;;;;;;13.49;56.25;100132.30;1815193;79;21069;-68
2022/02/25 02:57:20;;;;;;;12.68;11.38;;;;;;;13.49;56.24;100132.82;1815137;78;21059;-68
2022/02/25 02:59:47;;;;;;;11.63;10.53;;;;;;;13.49;56.27;100124.81;1814672;78;21644;-68
2022/02/25 03:02:13;;;;;;;12.25;11.00;;;;;;;13.48;56.25;100127.99;1814548;79;21548;-68
2022/02/25 03:04:39;;;;;;;12.07;10.88;;;;;;;13.48;56.26;100127.99;1814626;79;21014;-68
2022/02/25 03:07:06;;;;;;;12.45;11.15;;;;;;;13.47;56.25;100126.31;1814614;78;21022;-67
2022/02/25 03:09:32;;;;;;;12.13;10.90;;;;;;;13.48;56.24;100130.66;1814586;79;22377;-67
2022/02/25 03:11:59;;;;;;;12.53;11.22;;;;;;;13.48;56.24;100130.66;1814423;79;21050;-68
2022/02/25 03:14:25;;;;;;;11.73;10.58;;;;;;;13.48;56.24;100125.80;1813395;79;21533;-68
2022/02/25 03:16:52;;;;;;;12.20;10.80;;;;;;;13.47;56.24;100127.66;1796479;79;21038;-68
2022/02/25 03:19:19;;;;;;;11.40;10.25;;;;;;;13.47;56.23;100128.16;1782427;79;21021;-68
2022/02/25 03:21:47;;;;;;;12.28;11.08;;;;;;;13.46;56.24;100122.01;1797926;77;21130;-67
2022/02/25 03:24:13;;;;;;;11.00;9.90;;;;;;;13.46;56.23;100119.34;1826157;78;21030;-68
2022/02/25 03:26:40;;;;;;;12.03;10.85;;;;;;;13.45;56.24;100124.33;1814669;79;21061;-67
2022/02/25 03:29:06;;;;;;;12.50;11.22;;;;;;;13.45;56.23;100120.84;1814468;78;22015;-68
2022/02/25 03:31:33;;;;;;;12.15;10.85;;;;;;;13.45;56.21;100118.17;1814694;79;21009;-67
2022/02/25 03:33:59;;;;;;;12.00;10.80;;;;;;;13.44;56.22;100123.98;1799134;79;21092;-67
2022/02/25 03:36:25;;;;;;;12.63;11.28;;;;;;;13.45;56.23;100118.17;1782413;79;21084;-68
2022/02/25 03:38:52;;;;;;;11.38;10.18;;;;;;;13.44;56.21;100115.16;1782804;80;21010;-67
2022/02/25 03:41:18;;;;;;;11.28;10.18;;;;;;;13.44;56.21;100115.16;1782578;79;21061;-67
2022/02/25 03:43:45;;;;;;;11.73;10.53;;;;;;;13.44;56.20;100121.32;1782560;79;21513;-69
2022/02/25 03:46:12;;;;;;;12.35;11.08;;;;;;;13.43;56.18;100119.67;1782562;79;21048;-68
2022/02/25 03:48:38;;;;;;;10.98;9.75;;;;;;;13.43;56.19;100121.02;1782594;79;20990;-67
2022/02/25 03:51:05;;;;;;;12.18;10.98;;;;;;;13.42;56.17;100108.66;1796034;78;21343;-68
2022/02/25 03:53:31;;;;;;;11.63;10.35;;;;;;;13.42;56.20;100110.00;1828593;78;21062;-68
2022/02/25 03:55:58;;;;;;;11.43;10.20;;;;;;;13.42;56.19;100110.51;1814989;78;21073;-68
2022/02/25 03:58:24;;;;;;;11.95;10.65;;;;;;;13.42;56.20;100110.00;1814568;79;21053;-69
2022/02/25 04:00:50;;;;;;;12.15;10.72;;;;;;;13.41;56.18;100105.69;1814573;78;20979;-69
2022/02/25 04:03:17;;;;;;;12.15;10.95;;;;;;;13.41;56.18;100106.20;1814538;79;21584;-71
2022/02/25 04:05:44;;;;;;;12.07;10.78;;;;;;;13.40;56.20;100100.00;1814460;79;21007;-68
2022/02/25 04:08:11;;;;;;;11.68;10.58;;;;;;;13.40;56.20;100094.67;1796532;78;20982;-68
2022/02/25 04:10:37;;;;;;;11.28;10.15;;;;;;;13.40;56.18;100094.67;1782418;80;21134;-69
2022/02/25 04:13:04;;;;;;;11.63;10.43;;;;;;;13.40;56.20;100089.33;1782184;79;20994;-68
2022/02/25 04:15:31;;;;;;;12.18;10.95;;;;;;;13.40;56.18;100092.52;1803138;79;20985;-68
2022/02/25 04:17:57;;;;;;;11.68;10.50;;;;;;;13.39;56.19;100090.87;1791241;78;21017;-68
2022/02/25 04:20:24;;;;;;;11.38;10.25;;;;;;;13.39;56.19;100089.02;1804302;79;21030;-68
2022/02/25 04:22:50;;;;;;;11.15;9.98;;;;;;;13.38;56.19;100091.35;1796014;79;21048;-69
2022/02/25 04:25:16;;;;;;;12.47;11.18;;;;;;;13.38;56.19;100091.35;1794486;79;21005;-68
2022/02/25 04:27:44;;;;;;;11.75;10.55;;;;;;;13.37;56.18;100090.53;1796695;78;21076;-67
2022/02/25 04:30:11;;;;;;;12.13;10.80;;;;;;;13.38;56.18;100088.68;1826617;78;20994;-68
2022/02/25 04:32:38;;;;;;;11.05;9.95;;;;;;;13.36;56.18;100086.18;1815024;78;21541;-67
2022/02/25 04:35:06;;;;;;;11.97;10.78;;;;;;;13.37;56.17;100089.70;1814492;79;21046;-68
2022/02/25 04:37:33;;;;;;;11.30;10.20;;;;;;;13.37;56.17;100085.70;1814438;79;21006;-68
2022/02/25 04:39:59;;;;;;;11.95;10.75;;;;;;;13.37;56.17;100092.38;1814485;78;21037;-67
2022/02/25 04:42:26;;;;;;;10.90;9.80;;;;;;;13.36;56.17;100077.36;1804664;78;20994;-67
2022/02/25 04:44:53;;;;;;;11.05;10.00;;;;;;;13.36;56.16;100084.84;1782557;80;21072;-67
2022/02/25 04:47:19;;;;;;;11.12;10.03;;;;;;;13.36;56.15;100077.36;1799130;79;21198;-68
2022/02/25 04:49:46;;;;;;;11.65;10.45;;;;;;;13.36;56.15;100074.69;1815985;78;21600;-68
2022/02/25 04:52:13;;;;;;;11.88;10.65;;;;;;;13.35;56.15;100071.20;1825869;78;21005;-67
2022/02/25 04:54:40;;;;;;;12.05;10.58;;;;;;;13.34;56.16;100071.37;1826026;78;21553;-68
2022/02/25 04:57:07;;;;;;;11.60;10.32;;;;;;;13.35;56.17;100081.05;1834734;77;21396;-68
2022/02/25 04:59:34;;;;;;;11.03;9.93;;;;;;;13.33;56.16;100074.55;1805746;77;21170;-69
2022/02/25 05:02:00;;;;;;;12.60;11.28;;;;;;;13.33;56.15;100075.89;1793475;80;20995;-69
2022/02/25 05:04:27;;;;;;;12.45;11.03;;;;;;;13.33;56.15;100075.89;1793565;80;21033;-68
2022/02/25 05:06:55;;;;;;;11.97;10.78;;;;;;;13.32;56.13;100078.21;1793363;79;21060;-69
2022/02/25 05:09:21;;;;;;;10.93;9.83;;;;;;;13.33;56.15;100085.73;1793633;80;21560;-67
2022/02/25 05:11:48;;;;;;;11.83;10.63;;;;;;;13.32;56.13;100073.39;1822558;78;21029;-67
2022/02/25 05:22:29;;;;;;;12.00;10.80;;;;;;;13.30;56.13;100074.89;1793636;80;21028;-68
2022/02/25 05:24:56;;;;;;;10.95;9.95;;;;;;;13.29;56.15;100071.03;1821165;78;21080;-69
2022/02/25 05:27:23;;;;;;;12.00;10.72;;;;;;;13.29;56.16;100075.03;1824119;78;21077;-67
2022/02/25 05:29:49;;;;;;;11.43;10.32;;;;;;;13.28;56.16;100064.05;1824142;78;21006;-68
2022/02/25 05:32:16;;;;;;;11.10;10.00;;;;;;;13.28;56.14;100064.05;1818571;78;21021;-67
2022/02/25 05:34:43;;;;;;;11.15;10.03;;;;;;;13.28;56.14;100064.05;1836825;77;21037;-67
2022/02/25 05:37:09;;;;;;;11.68;10.48;;;;;;;13.29;56.15;100060.36;1826083;78;21876;-68
2022/02/25 05:39:36;;;;;;;11.15;10.15;;;;;;;13.29;56.16;100061.69;1825855;78;20997;-68
2022/02/25 05:42:04;;;;;;;10.45;9.43;;;;;;;13.27;56.14;100053.89;1826219;78;20989;-69
2022/02/25 05:44:30;;;;;;;11.65;10.32;;;;;;;13.28;56.15;100054.20;1796804;78;21130;-68
2022/02/25 05:46:56;;;;;;;11.55;10.43;;;;;;;13.29;56.13;100056.36;1793450;79;21006;-68
2022/02/25 05:49:24;;;;;;;11.43;10.28;;;;;;;13.29;56.12;100059.02;1793941;78;21177;-68
2022/02/25 05:51:50;;;;;;;11.57;10.38;;;;;;;13.29;56.12;100056.36;1808422;78;21270;-68
2022/02/25 05:54:17;;;;;;;11.65;10.50;;;;;;;13.29;56.12;100051.02;1825848;78;21081;-70
2022/02/25 05:56:43;;;;;;;11.70;10.50;;;;;;;13.29;56.09;100055.88;1826023;78;21505;-68
2022/02/25 05:59:11;;;;;;;10.38;9.38;;;;;;;13.29;56.10;100057.69;1825960;78;21049;-68
2022/02/25 06:01:37;;;;;;;12.10;10.90;;;;;;;13.30;56.10;100063.40;1821052;77;21521;-68
2022/02/25 06:04:04;;;;;;;11.75;10.05;;;;;;;13.30;56.08;100059.39;1837766;77;21112;-68
2022/02/25 06:06:30;;;;;;;11.50;10.35;;;;;;;13.30;56.09;100070.06;1829896;77;21002;-68
2022/02/25 06:08:56;;;;;;;11.88;10.68;;;;;;;13.30;56.08;100067.40;1793260;79;21058;-68
2022/02/25 06:11:23;;;;;;;12.35;11.05;;;;;;;13.30;56.07;100063.40;1793510;79;21068;-68
2022/02/25 06:13:49;;;;;;;11.68;10.43;;;;;;;13.30;56.08;100067.40;1793648;79;21109;-68
2022/02/25 06:16:16;;;;;;;11.88;10.63;;;;;;;13.29;56.07;100064.36;1824544;78;21073;-68
2022/02/25 06:18:43;;;;;;;11.30;10.20;;;;;;;13.30;56.07;100064.73;1825898;78;21056;-69
2022/02/25 06:21:10;;;;;;;12.55;11.00;;;;;;;13.30;56.07;100065.55;1826326;78;21068;-67
2022/02/25 06:23:36;;;;;;;11.53;10.32;;;;;;;13.30;56.04;100071.41;1824591;78;20986;-68
2022/02/25 06:26:02;;;;;;;11.00;9.95;;;;;;;13.29;56.04;100067.88;1825947;78;22292;-68
2022/02/25 06:28:31;;;;;;;12.28;10.93;;;;;;;13.31;56.02;100069.08;1825931;78;21242;-68
2022/02/25 06:30:58;;;;;;;11.53;10.43;;;;;;;13.31;56.01;100066.41;1825865;78;20998;-69
2022/02/25 06:33:24;;;;;;;11.97;10.70;;;;;;;13.31;56.00;100067.74;1825820;78;20990;-67
2022/02/25 06:35:52;;;;;;;12.47;11.18;;;;;;;13.31;56.00;100062.41;1826120;78;21079;-67
2022/02/25 06:38:18;;;;;;;11.63;10.43;;;;;;;13.32;56.01;100064.05;1830174;77;21103;-68
2022/02/25 06:40:45;;;;;;;12.40;11.10;;;;;;;13.31;55.99;100061.89;1828374;77;21014;-68
2022/02/25 06:43:12;;;;;;;12.28;10.10;;;;;;;13.32;55.98;100061.37;1793516;79;21021;-68
2022/02/25 06:45:38;;;;;;;12.05;10.85;;;;;;;13.32;55.98;100056.05;1793640;79;21034;-69
2022/02/25 06:48:05;;;;;;;12.20;10.70;;;;;;;13.33;55.96;100060.39;1793745;79;21005;-69
2022/02/25 06:50:31;;;;;;;12.68;11.48;;;;;;;13.33;55.95;100057.20;1793452;79;21120;-68
2022/02/25 06:52:57;;;;;;;12.23;10.93;;;;;;;13.33;55.94;100059.88;1823588;78;21017;-67
2022/02/25 06:55:24;;;;;;;12.35;11.05;;;;;;;13.35;55.95;100058.37;1826102;78;21001;-68
2022/02/25 06:57:50;;;;;;;11.45;10.35;;;;;;;13.35;55.93;100053.85;1812146;78;21458;-68
2022/02/25 07:00:21;;;;;;;11.93;10.72;;;;;;;13.36;55.92;100056.01;1793602;80;21076;-69
2022/02/25 07:02:46;;;;;;;11.88;10.70;;;;;;;13.35;55.91;100059.19;1793353;79;21134;-68
2022/02/25 07:05:12;;;;;;;12.65;10.60;;;;;;;13.37;55.90;100057.17;1793407;79;20986;-68
2022/02/25 07:07:39;;;;;;;11.63;10.43;;;;;;;13.37;55.90;100054.50;1833673;77;21022;-68
2022/02/25 07:10:07;;;;;;;11.45;10.25;;;;;;;13.37;55.88;100051.83;1826011;78;21532;-68
2022/02/25 07:12:33;;;;;;;11.70;10.50;;;;;;;13.37;55.89;100050.50;1826004;78;21142;-68
2022/02/25 07:15:00;;;;;;;11.88;10.68;;;;;;;13.39;55.87;100050.33;1810637;78;21130;-67
2022/02/25 07:17:27;;;;;;;13.18;11.88;;;;;;;13.40;55.87;100049.81;1793552;79;21032;-67
2022/02/25 07:19:53;;;;;;;11.90;10.70;;;;;;;13.40;55.87;100048.48;1793360;80;21100;-69
2022/02/25 07:22:19;;;;;;;10.72;9.63;;;;;;;13.40;55.86;100039.96;1793444;79;21781;-68
2022/02/25 07:24:46;;;;;;;13.58;11.15;;;;;;;13.42;55.85;100038.45;1793764;80;21048;-68
2022/02/25 07:27:13;;;;;;;11.05;10.03;;;;;;;13.42;55.84;100033.12;1793447;80;22007;-69
2022/02/25 07:29:39;;;;;;;11.22;10.10;;;;;;;13.43;55.83;100026.78;1793410;79;21033;-68
2022/02/25 07:32:07;;;;;;;10.72;9.70;;;;;;;13.44;55.82;100021.76;1794650;78;21072;-69
2022/02/25 07:34:33;;;;;;;11.93;10.72;;;;;;;13.45;55.82;100024.25;1793530;80;21072;-69
2022/02/25 07:36:59;;;;;;;12.70;11.40;;;;;;;13.46;55.82;100024.59;1793492;80;21056;-68
2022/02/25 07:39:26;;;;;;;12.15;10.85;;;;;;;13.48;55.81;100027.05;1802103;77;21055;-67
2022/02/25 07:41:52;;;;;;;11.40;10.13;;;;;;;13.48;55.79;100026.58;1860061;77;20967;-68
2022/02/25 07:44:21;;;;;;;11.95;10.75;;;;;;;13.50;55.78;100022.37;1844163;76;20990;-70
2022/02/25 07:46:47;;;;;;;11.45;10.25;;;;;;;13.50;55.77;100023.22;1841552;77;20971;-68
2022/02/25 07:49:13;;;;;;;11.63;10.40;;;;;;;13.52;55.77;100023.87;1814515;77;21010;-68
2022/02/25 07:51:40;;;;;;;11.12;9.93;;;;;;;13.53;55.75;100024.17;1805970;78;21161;-68
2022/02/25 07:54:06;;;;;;;11.83;10.63;;;;;;;13.55;55.74;100020.00;1826155;78;21044;-68
2022/02/25 07:56:33;;;;;;;10.40;9.30;;;;;;;13.56;55.70;100019.82;1826041;78;21056;-69
2022/02/25 07:58:59;;;;;;;10.72;9.73;;;;;;;13.57;55.69;100021.47;1826418;78;21080;-67
2022/02/25 08:01:26;;;;;;;10.55;9.50;;;;;;;13.60;55.70;100018.11;1826171;78;20986;-68
2022/02/25 08:03:53;;;;;;;10.85;9.75;;;;;;;13.60;55.67;100016.29;1826307;78;21117;-67
2022/02/25 08:06:21;;;;;;;10.28;9.20;;;;;;;13.62;55.66;100014.75;1805270;78;20973;-67
2022/02/25 08:08:48;;;;;;;12.55;10.90;;;;;;;13.63;55.63;100009.75;1793688;80;20990;-68
2022/02/25 08:11:14;;;;;;;12.47;11.22;;;;;;;13.64;55.64;100003.41;1803136;77;21049;-67
2022/02/25 08:13:40;;;;;;;10.65;9.58;;;;;;;13.65;55.65;100001.88;1837500;77;21002;-68
2022/02/25 08:16:07;;;;;;;10.78;9.78;;;;;;;13.67;55.61;100005.70;1794283;78;21150;-67
2022/02/25 08:18:34;;;;;;;11.00;10.00;;;;;;;13.67;55.59;100007.86;1793579;79;21002;-68
2022/02/25 08:21:00;;;;;;;11.03;9.93;;;;;;;13.69;55.59;99999.67;1793427;80;21025;-68
2022/02/25 08:23:27;;;;;;;10.65;9.55;;;;;;;13.69;55.58;99999.16;1794504;78;21299;-69
2022/02/25 08:25:54;;;;;;;11.22;10.15;;;;;;;13.71;55.53;99989.64;1793610;79;21065;-68
2022/02/25 08:28:21;;;;;;;11.35;10.25;;;;;;;13.72;55.54;99987.31;1793496;80;21131;-68
2022/02/25 08:30:48;;;;;;;10.88;9.78;;;;;;;13.73;55.52;99987.61;1793578;80;21122;-69
2022/02/25 08:33:15;;;;;;;10.35;9.25;;;;;;;13.74;55.49;99984.77;1793504;79;21006;-68
2022/02/25 08:35:42;;;;;;;10.30;9.30;;;;;;;13.75;55.48;99984.25;1793365;80;21080;-67
2022/02/25 08:38:08;;;;;;;9.78;8.83;;;;;;;13.76;55.46;99989.42;1793565;80;21438;-67
2022/02/25 08:40:36;;;;;;;11.18;10.05;;;;;;;13.78;55.45;99989.75;1794815;77;21129;-68
2022/02/25 08:43:02;;;;;;;10.20;9.18;;;;;;;13.79;55.43;99992.25;1793442;80;21446;-66
2022/02/25 08:45:29;;;;;;;9.68;8.70;;;;;;;13.80;55.42;99987.22;1793559;80;21017;-68
2022/02/25 08:47:56;;;;;;;10.72;9.63;;;;;;;13.81;55.38;99984.03;1793550;80;21009;-66
2022/02/25 08:50:22;;;;;;;10.03;9.03;;;;;;;13.82;55.38;99975.02;1821087;77;21014;-67
2022/02/25 08:52:52;;;;;;;10.15;9.15;;;;;;;13.83;55.35;99977.52;1830313;76;21263;-68
2022/02/25 08:55:19;;;;;;;10.10;9.10;;;;;;;13.84;55.33;99976.48;1825918;78;21068;-69
2022/02/25 08:57:47;;;;;;;11.10;10.00;;;;;;;13.86;55.32;99975.80;1799376;78;21013;-67
2022/02/25 09:00:17;;;;;;;10.35;9.35;;;;;;;13.86;55.29;99967.78;1793464;79;21021;-68
2022/02/25 09:02:44;;;;;;;10.05;9.05;;;;;;;13.87;55.29;99966.78;1793841;80;21052;-67
2022/02/25 09:05:11;;;;;;;10.23;9.13;;;;;;;13.88;55.28;99968.42;1793509;80;21153;-69
2022/02/25 09:07:38;;;;;;;10.63;9.40;;;;;;;13.89;55.28;99966.09;1793475;80;20994;-68
2022/02/25 09:10:06;;;;;;;9.85;8.88;;;;;;;13.91;55.26;99965.92;1793401;80;21081;-70
2022/02/25 09:12:34;;;;;;;10.18;9.18;;;;;;;13.90;55.23;99962.91;1793839;79;21033;-67
2022/02/25 09:15:07;;;;;;;9.70;8.68;;;;;;;13.92;55.20;99966.22;1822991;78;20997;-66
2022/02/25 09:17:34;;;;;;;9.23;8.27;;;;;;;13.91;55.18;99961.39;1829817;77;21225;-68
2022/02/25 09:20:00;;;;;;;9.68;8.78;;;;;;;13.92;55.15;99960.88;1825818;78;21704;-67
2022/02/25 09:22:27;;;;;;;9.73;8.73;;;;;;;13.92;55.17;99955.02;1826122;78;21064;-68
2022/02/25 09:24:54;;;;;;;8.93;8.03;;;;;;;13.93;55.13;99951.88;1825933;78;21001;-68
2022/02/25 09:27:20;;;;;;;10.10;9.10;;;;;;;13.93;55.15;99952.69;1826277;78;20966;-68
2022/02/25 09:29:46;;;;;;;9.38;8.48;;;;;;;13.94;55.10;99949.50;1825586;78;21113;-67
2022/02/25 09:32:12;;;;;;;9.73;8.65;;;;;;;13.93;55.08;99947.34;1825380;78;21756;-69
2022/02/25 09:34:39;;;;;;;11.25;9.75;;;;;;;13.95;55.05;99945.32;1825964;78;21030;-69
2022/02/25 09:37:05;;;;;;;8.83;7.97;;;;;;;13.96;55.03;99944.80;1826095;78;21493;-67
2022/02/25 09:39:32;;;;;;;9.30;8.30;;;;;;;13.96;55.02;99944.80;1826290;78;21501;-68
2022/02/25 09:41:59;;;;;;;8.85;7.95;;;;;;;13.96;54.97;99934.13;1825817;78;21049;-68
2022/02/25 09:44:26;;;;;;;8.23;7.42;;;;;;;13.98;54.94;99935.28;1826179;78;21010;-67
2022/02/25 09:46:53;;;;;;;9.23;8.33;;;;;;;13.98;54.93;99927.27;1825178;78;21034;-67
2022/02/25 09:49:19;;;;;;;9.20;8.20;;;;;;;13.96;54.90;99927.44;1826082;78;21088;-68
2022/02/25 09:51:47;;;;;;;8.88;7.97;;;;;;;13.99;54.87;99927.60;1822490;78;21053;-67
2022/02/25 09:54:16;;;;;;;8.60;7.80;;;;;;;13.99;54.83;99927.09;1789140;79;21731;-68
2022/02/25 09:56:46;;;;;;;8.43;7.65;;;;;;;13.99;54.80;99931.61;1811457;78;21030;-68
2022/02/25 09:59:14;;;;;;;8.60;7.72;;;;;;;13.99;54.77;99927.60;1838292;78;21130;-67
2022/02/25 10:01:41;;;;;;;8.40;7.53;;;;;;;13.98;54.75;99925.92;1839861;78;21013;-68
2022/02/25 10:04:17;;;;;;;9.00;8.08;;;;;;;13.99;54.74;99920.92;1830777;78;21077;-68
2022/02/25 10:06:44;;;;;;;9.20;8.30;;;;;;;13.98;54.73;99911.23;1782745;80;21763;-69
2022/02/25 10:09:33;;;;;;;8.93;7.87;;;;;;;13.99;54.70;99914.24;1782273;80;20995;-67
2022/02/25 10:12:11;;;;;;;7.72;6.92;;;;;;;13.99;54.70;99911.06;1782381;80;21584;-69
2022/02/25 10:14:44;;;;;;;8.43;7.62;;;;;;;13.98;54.67;99900.04;1782509;79;21033;-68
2022/02/25 10:17:23;;;;;;;8.65;7.83;;;;;;;13.99;54.67;99896.88;1782593;80;20998;-67
2022/02/25 10:20:01;;;;;;;8.65;7.75;;;;;;;13.99;54.66;99893.70;1782399;80;22100;-68
2022/02/25 10:22:38;;;;;;;8.38;7.58;;;;;;;13.98;54.65;99882.67;1818577;78;21470;-68
2022/02/25 10:25:10;;;;;;;7.78;7.08;;;;;;;13.99;54.64;99888.88;1782557;80;20998;-68
2022/02/25 10:27:42;;;;;;;8.13;7.33;;;;;;;14.01;54.61;99877.49;1782442;80;21029;-70
2022/02/25 10:30:17;;;;;;;7.83;7.03;;;;;;;14.02;54.60;99876.46;1782652;80;21521;-68
2022/02/25 10:32:50;;;;;;;8.48;7.00;;;;;;;14.01;54.57;99871.63;1782531;80;21805;-69
2022/02/25 10:35:38;;;;;;;7.33;6.50;;;;;;;14.03;54.59;99862.92;1782538;80;21549;-68
2022/02/25 10:38:16;;;;;;;7.42;6.72;;;;;;;14.04;54.58;99859.73;1786102;79;21084;-67
2022/02/25 10:40:47;;;;;;;7.80;6.65;;;;;;;14.07;54.54;99863.38;1814795;79;21030;-67
2022/02/25 10:43:24;;;;;;;7.10;6.40;;;;;;;14.08;54.59;99868.55;1814614;78;21025;-67
2022/02/25 10:45:55;;;;;;;7.33;6.62;;;;;;;14.10;54.58;99873.19;1814496;79;21120;-68
2022/02/25 10:48:25;;;;;;;7.03;6.33;;;;;;;14.14;54.56;99864.30;1814423;79;20998;-68
2022/02/25 10:50:55;;;;;;;7.20;6.50;;;;;;;14.16;54.54;99856.91;1811859;77;21072;-67
2022/02/25 10:53:36;;;;;;;6.25;5.65;;;;;;;14.21;54.54;99843.80;1823850;78;21001;-68
2022/02/25 10:56:10;;;;;;;7.55;6.75;;;;;;;14.27;54.48;99844.89;1809094;77;20998;-67
2022/02/25 10:58:46;;;;;;;6.97;6.35;;;;;;;14.32;54.47;99843.82;1793927;79;21082;-68
2022/02/25 11:01:13;;;;;;;7.45;6.75;;;;;;;14.38;54.59;99835.03;1798611;77;21509;-66
2022/02/25 11:03:41;;;;;;;7.83;6.55;;;;;;;14.44;54.79;99832.93;1837198;77;21017;-67
2022/02/25 11:06:09;;;;;;;7.62;6.92;;;;;;;14.52;54.72;99824.78;1826174;78;21009;-67
2022/02/25 11:08:36;;;;;;;6.50;5.90;;;;;;;14.60;54.65;99819.84;1826204;78;21045;-68
2022/02/25 11:11:03;;;;;;;6.08;5.58;;;;;;;14.68;54.63;99814.86;1826118;78;21548;-67
2022/02/25 11:13:30;;;;;;;6.55;5.92;;;;;;;14.77;54.64;99807.02;1812881;78;20978;-68
2022/02/25 11:15:57;;;;;;;6.50;5.90;;;;;;;14.84;54.64;99809.25;1826264;78;21435;-68
2022/02/25 11:18:23;;;;;;;6.65;6.05;;;;;;;14.94;54.55;99803.56;1826385;78;21002;-69
2022/02/25 11:20:53;;;;;;;6.17;5.58;;;;;;;15.04;54.51;99804.55;1826127;78;21506;-68
2022/02/25 11:23:21;;;;;;;6.95;6.20;;;;;;;15.13;54.58;99794.02;1825943;78;21191;-69
2022/02/25 11:25:48;;;;;;;6.83;6.12;;;;;;;15.22;54.54;99788.83;1826592;77;21629;-69
2022/02/25 11:28:15;;;;;;;6.08;5.53;;;;;;;15.34;54.48;99793.93;1837137;77;21044;-68
2022/02/25 11:31:00;;;;;;;6.42;5.83;;;;;;;15.46;54.78;99784.00;1800294;78;21036;-68